CMP209 KMIA-MPTO
Flight info
| Callsign | CMP209 |
|---|---|
| Flight time | N/A |
| Altitude | 33000 |
| Route | MAYNR3 FUNDI UM335 TIDAN/N0453F350 UM335 ARNAL DCT SEKMA OSUPA2A |
| Aircraft | B738/M-SDE2E3FGHIRWXY/LB1 |
Departure
| Time | 2026-05-05 22:44 |
|---|---|
| Airport | Miami International Airport (KMIA) |
Arrival
| Time | N/A |
|---|---|
| Airport | Tocumen International Airport (MPTO) |
| Time | Latitude | Longitude | Altitude | Speed | Heading |
|---|---|---|---|---|---|
| 2026-05-05 22:29 | 25.79144 | -80.27414 | 14 ft | 0 kts | 87° |
| 2026-05-05 22:31 | 25.79143 | -80.27431 | 14 ft | 4 kts | 86° |
| 2026-05-05 22:32 | 25.79142 | -80.27461 | 18 ft | 4 kts | 88° |
| 2026-05-05 22:32 | 25.79142 | -80.27484 | 18 ft | 2 kts | 109° |
| 2026-05-05 22:32 | 25.79148 | -80.27494 | 17 ft | 2 kts | 168° |
| 2026-05-05 22:32 | 25.79159 | -80.27495 | 17 ft | 0 kts | 177° |
| 2026-05-05 22:34 | 25.79147 | -80.27495 | 17 ft | 7 kts | 176° |
| 2026-05-05 22:34 | 25.79092 | -80.27491 | 14 ft | 8 kts | 176° |
| 2026-05-05 22:34 | 25.79038 | -80.27489 | 14 ft | 8 kts | 177° |
| 2026-05-05 22:35 | 25.78996 | -80.27493 | 14 ft | 5 kts | 212° |
| 2026-05-05 22:35 | 25.78974 | -80.27520 | 15 ft | 7 kts | 245° |
| 2026-05-05 22:35 | 25.78958 | -80.27608 | 14 ft | 13 kts | 258° |
| 2026-05-05 22:35 | 25.78945 | -80.27707 | 14 ft | 13 kts | 268° |
| 2026-05-05 22:36 | 25.78940 | -80.27804 | 14 ft | 13 kts | 266° |
| 2026-05-05 22:36 | 25.78937 | -80.27900 | 15 ft | 12 kts | 273° |
| 2026-05-05 22:36 | 25.78969 | -80.27992 | 15 ft | 18 kts | 300° |
| 2026-05-05 22:36 | 25.79038 | -80.28127 | 15 ft | 20 kts | 300° |
| 2026-05-05 22:37 | 25.79107 | -80.28259 | 14 ft | 19 kts | 304° |
| 2026-05-05 22:37 | 25.79173 | -80.28376 | 14 ft | 4 kts | 310° |
| 2026-05-05 22:37 | 25.79173 | -80.28377 | 14 ft | 0 kts | 311° |
| 2026-05-05 22:38 | 25.79174 | -80.28377 | 14 ft | 0 kts | 311° |
| 2026-05-05 22:38 | 25.79208 | -80.28407 | 14 ft | 13 kts | 324° |
| 2026-05-05 22:38 | 25.79267 | -80.28504 | 14 ft | 15 kts | 298° |
| 2026-05-05 22:38 | 25.79317 | -80.28607 | 14 ft | 15 kts | 298° |
| 2026-05-05 22:39 | 25.79368 | -80.28703 | 14 ft | 14 kts | 300° |
| 2026-05-05 22:39 | 25.79416 | -80.28796 | 14 ft | 14 kts | 300° |
| 2026-05-05 22:39 | 25.79462 | -80.28885 | 14 ft | 13 kts | 299° |
| 2026-05-05 22:39 | 25.79506 | -80.28971 | 14 ft | 13 kts | 299° |
| 2026-05-05 22:40 | 25.79549 | -80.29054 | 14 ft | 12 kts | 304° |
| 2026-05-05 22:40 | 25.79621 | -80.29085 | 15 ft | 12 kts | 358° |
| 2026-05-05 22:40 | 25.79701 | -80.29089 | 14 ft | 13 kts | 357° |
| 2026-05-05 22:40 | 25.79799 | -80.29094 | 15 ft | 14 kts | 358° |
| 2026-05-05 22:41 | 25.79888 | -80.29097 | 14 ft | 12 kts | 358° |
| 2026-05-05 22:41 | 25.79967 | -80.29104 | 17 ft | 11 kts | 347° |
| 2026-05-05 22:41 | 25.80001 | -80.29166 | 15 ft | 11 kts | 269° |
| 2026-05-05 22:41 | 25.79998 | -80.29247 | 15 ft | 10 kts | 267° |
| 2026-05-05 22:42 | 25.79994 | -80.29336 | 14 ft | 14 kts | 267° |
| 2026-05-05 22:42 | 25.79989 | -80.29447 | 13 ft | 17 kts | 267° |
| 2026-05-05 22:42 | 25.79983 | -80.29583 | 13 ft | 18 kts | 267° |
| 2026-05-05 22:42 | 25.79977 | -80.29711 | 13 ft | 12 kts | 268° |
| 2026-05-05 22:43 | 25.80031 | -80.29762 | 14 ft | 11 kts | 0° |
| 2026-05-05 22:43 | 25.80085 | -80.29735 | 13 ft | 9 kts | 67° |
| 2026-05-05 22:43 | 25.80088 | -80.29714 | 13 ft | 4 kts | 86° |
| 2026-05-05 22:43 | 25.80098 | -80.29492 | 13 ft | 59 kts | 88° |
| 2026-05-05 22:44 | 25.80126 | -80.28812 | 16 ft | 115 kts | 88° |
| 2026-05-05 22:44 | 25.80168 | -80.27750 | 67 ft | 154 kts | 88° |
| 2026-05-05 22:44 | 25.80214 | -80.26527 | 570 ft | 161 kts | 88° |
| 2026-05-05 22:44 | 25.79942 | -80.25301 | 1067 ft | 175 kts | 128° |
| 2026-05-05 22:45 | 25.79029 | -80.24402 | 1727 ft | 177 kts | 135° |
| 2026-05-05 22:45 | 25.78046 | -80.23440 | 2031 ft | 203 kts | 137° |
| 2026-05-05 22:45 | 25.76937 | -80.22355 | 2258 ft | 222 kts | 137° |
| 2026-05-05 22:45 | 25.75726 | -80.21171 | 2514 ft | 238 kts | 137° |
| 2026-05-05 22:46 | 25.74455 | -80.19956 | 2955 ft | 245 kts | 143° |
| 2026-05-05 22:46 | 25.72876 | -80.19234 | 3398 ft | 249 kts | 170° |
| 2026-05-05 22:46 | 25.71132 | -80.19067 | 3893 ft | 253 kts | 179° |
| 2026-05-05 22:46 | 25.69353 | -80.19016 | 4262 ft | 263 kts | 182° |
| 2026-05-05 22:47 | 25.67466 | -80.18989 | 4603 ft | 276 kts | 185° |
| 2026-05-05 22:47 | 25.65598 | -80.19198 | 5396 ft | 273 kts | 190° |
| 2026-05-05 22:47 | 25.63702 | -80.19486 | 6096 ft | 277 kts | 190° |
| 2026-05-05 22:47 | 25.61787 | -80.19888 | 6797 ft | 276 kts | 204° |
| 2026-05-05 22:48 | 25.60113 | -80.20853 | 7442 ft | 276 kts | 213° |
| 2026-05-05 22:48 | 25.58443 | -80.21931 | 8103 ft | 279 kts | 213° |
| 2026-05-05 22:48 | 25.56761 | -80.23019 | 8805 ft | 280 kts | 213° |
| 2026-05-05 22:48 | 25.55065 | -80.24111 | 9435 ft | 285 kts | 213° |
| 2026-05-05 22:49 | 25.53340 | -80.25215 | 10076 ft | 288 kts | 213° |
| 2026-05-05 22:49 | 25.51559 | -80.26352 | 10341 ft | 306 kts | 213° |
| 2026-05-05 22:49 | 25.49652 | -80.27568 | 10513 ft | 327 kts | 213° |
| 2026-05-05 22:49 | 25.47624 | -80.28856 | 10763 ft | 343 kts | 212° |
| 2026-05-05 22:50 | 25.45514 | -80.30189 | 11175 ft | 351 kts | 212° |
| 2026-05-05 22:50 | 25.43382 | -80.31530 | 11808 ft | 354 kts | 212° |
| 2026-05-05 22:50 | 25.41256 | -80.32869 | 12366 ft | 358 kts | 212° |
| 2026-05-05 22:50 | 25.39083 | -80.34237 | 12951 ft | 361 kts | 213° |
| 2026-05-05 22:51 | 25.36886 | -80.35621 | 13518 ft | 365 kts | 213° |
| 2026-05-05 22:51 | 25.34666 | -80.37018 | 14031 ft | 369 kts | 213° |
| 2026-05-05 22:51 | 25.32421 | -80.38431 | 14547 ft | 372 kts | 213° |
| 2026-05-05 22:51 | 25.30175 | -80.39843 | 15176 ft | 372 kts | 213° |
| 2026-05-05 22:52 | 25.27915 | -80.41265 | 15690 ft | 377 kts | 213° |
| 2026-05-05 22:52 | 25.25623 | -80.42706 | 16174 ft | 381 kts | 213° |
| 2026-05-05 22:52 | 25.23288 | -80.44136 | 16679 ft | 386 kts | 208° |
| 2026-05-05 22:52 | 25.20737 | -80.45169 | 17198 ft | 394 kts | 200° |
| 2026-05-05 22:53 | 25.18088 | -80.46005 | 17731 ft | 398 kts | 199° |
| 2026-05-05 22:53 | 25.15407 | -80.46816 | 18221 ft | 402 kts | 199° |
| 2026-05-05 22:53 | 25.12698 | -80.47644 | 18648 ft | 405 kts | 199° |
| 2026-05-05 22:53 | 25.09979 | -80.48497 | 19094 ft | 407 kts | 199° |
| 2026-05-05 22:54 | 25.07248 | -80.49371 | 19538 ft | 410 kts | 200° |
| 2026-05-05 22:54 | 25.05433 | -80.49959 | 19824 ft | 412 kts | 200° |
| 2026-05-05 22:54 | 25.02676 | -80.50858 | 20244 ft | 414 kts | 200° |
| 2026-05-05 22:54 | 24.99903 | -80.51765 | 20651 ft | 417 kts | 201° |
| 2026-05-05 22:55 | 24.97113 | -80.52677 | 21063 ft | 419 kts | 201° |
| 2026-05-05 22:55 | 24.94305 | -80.53595 | 21464 ft | 422 kts | 201° |
| 2026-05-05 22:55 | 24.91483 | -80.54516 | 21853 ft | 425 kts | 201° |
| 2026-05-05 22:55 | 24.88638 | -80.55444 | 22236 ft | 428 kts | 201° |
| 2026-05-05 22:56 | 24.85775 | -80.56378 | 22610 ft | 430 kts | 201° |
| 2026-05-05 22:56 | 24.83024 | -80.57608 | 22922 ft | 424 kts | 218° |
| 2026-05-05 22:56 | 24.80801 | -80.59670 | 23290 ft | 414 kts | 234° |
| 2026-05-05 22:56 | 24.79147 | -80.62232 | 23684 ft | 410 kts | 242° |
| 2026-05-05 22:57 | 24.77629 | -80.64892 | 23984 ft | 411 kts | 243° |
| 2026-05-05 22:57 | 24.76137 | -80.67548 | 24270 ft | 414 kts | 243° |
| 2026-05-05 22:57 | 24.74619 | -80.70237 | 24582 ft | 415 kts | 243° |
| 2026-05-05 22:57 | 24.73072 | -80.72947 | 24884 ft | 417 kts | 242° |
| 2026-05-05 22:58 | 24.71520 | -80.75643 | 25183 ft | 419 kts | 242° |
| 2026-05-05 22:58 | 24.69949 | -80.78355 | 25467 ft | 421 kts | 242° |
| 2026-05-05 22:58 | 24.68367 | -80.81074 | 25767 ft | 423 kts | 242° |
| 2026-05-05 22:58 | 24.66774 | -80.83810 | 26058 ft | 425 kts | 242° |
| 2026-05-05 22:59 | 24.65182 | -80.86543 | 26344 ft | 426 kts | 242° |
| 2026-05-05 22:59 | 24.63578 | -80.89295 | 26628 ft | 428 kts | 242° |
| 2026-05-05 22:59 | 24.61970 | -80.92056 | 26906 ft | 430 kts | 242° |
| 2026-05-05 22:59 | 24.60349 | -80.94835 | 27161 ft | 432 kts | 242° |
| 2026-05-05 23:00 | 24.56303 | -80.99792 | 27625 ft | 455 kts | 216° |
| 2026-05-05 23:00 | 24.53435 | -81.01225 | 27945 ft | 465 kts | 202° |
| 2026-05-05 23:00 | 24.50195 | -81.01791 | 28208 ft | 478 kts | 186° |
| 2026-05-05 23:01 | 24.46855 | -81.01788 | 28484 ft | 481 kts | 184° |
| 2026-05-05 23:01 | 24.43495 | -81.01707 | 28691 ft | 485 kts | 183° |
| 2026-05-05 23:01 | 24.40108 | -81.01613 | 28912 ft | 487 kts | 183° |
| 2026-05-05 23:01 | 24.36716 | -81.01535 | 29169 ft | 488 kts | 184° |
| 2026-05-05 23:02 | 24.33326 | -81.01478 | 29459 ft | 488 kts | 184° |
| 2026-05-05 23:02 | 24.29934 | -81.01437 | 29844 ft | 486 kts | 184° |
| 2026-05-05 23:02 | 24.26555 | -81.01407 | 30222 ft | 485 kts | 184° |
| 2026-05-05 23:02 | 24.23184 | -81.01382 | 30503 ft | 485 kts | 184° |
| 2026-05-05 23:03 | 24.19798 | -81.01359 | 30727 ft | 486 kts | 184° |
| 2026-05-05 23:03 | 24.16415 | -81.01334 | 30964 ft | 487 kts | 184° |
| 2026-05-05 23:03 | 24.13014 | -81.01307 | 31240 ft | 488 kts | 184° |
| 2026-05-05 23:03 | 24.09615 | -81.01279 | 31518 ft | 487 kts | 184° |
| 2026-05-05 23:04 | 24.06221 | -81.01251 | 31780 ft | 488 kts | 184° |
| 2026-05-05 23:04 | 24.02824 | -81.01223 | 32032 ft | 489 kts | 184° |
| 2026-05-05 23:04 | 23.99421 | -81.01194 | 32311 ft | 489 kts | 184° |
| 2026-05-05 23:04 | 23.96017 | -81.01103 | 32601 ft | 490 kts | 182° |
| 2026-05-05 23:05 | 23.92829 | -81.00967 | 32849 ft | 489 kts | 182° |
| 2026-05-05 23:05 | 23.89469 | -81.00799 | 33179 ft | 479 kts | 181° |
| 2026-05-05 23:05 | 23.86160 | -81.00633 | 33029 ft | 482 kts | 182° |
| 2026-05-05 23:05 | 23.82807 | -81.00472 | 33026 ft | 482 kts | 182° |
| 2026-05-05 23:06 | 23.76107 | -81.00172 | 33016 ft | 482 kts | 182° |
| 2026-05-05 23:06 | 23.69410 | -80.99886 | 33017 ft | 481 kts | 182° |
| 2026-05-05 23:07 | 23.62705 | -80.99601 | 33013 ft | 481 kts | 182° |
| 2026-05-05 23:07 | 23.56001 | -80.99315 | 33011 ft | 481 kts | 182° |
| 2026-05-05 23:08 | 23.49302 | -80.99029 | 33013 ft | 481 kts | 182° |
| 2026-05-05 23:08 | 23.42601 | -80.98743 | 33007 ft | 481 kts | 181° |
| 2026-05-05 23:09 | 23.35905 | -80.98458 | 33009 ft | 481 kts | 181° |
| 2026-05-05 23:09 | 23.29268 | -80.98175 | 33013 ft | 481 kts | 181° |
| 2026-05-05 23:10 | 23.22579 | -80.97898 | 33008 ft | 481 kts | 181° |
| 2026-05-05 23:10 | 23.15898 | -80.97631 | 33002 ft | 481 kts | 181° |
| 2026-05-05 23:11 | 23.09211 | -80.97361 | 33020 ft | 481 kts | 181° |
| 2026-05-05 23:11 | 23.02523 | -80.97112 | 33015 ft | 480 kts | 181° |
| 2026-05-05 23:12 | 22.95843 | -80.96867 | 33016 ft | 480 kts | 181° |
| 2026-05-05 23:12 | 22.89161 | -80.96599 | 33014 ft | 481 kts | 181° |
| 2026-05-05 23:13 | 22.82764 | -80.96343 | 33018 ft | 488 kts | 181° |
| 2026-05-05 23:13 | 22.75936 | -80.96073 | 33023 ft | 492 kts | 181° |
| 2026-05-05 23:14 | 22.69073 | -80.95801 | 33017 ft | 493 kts | 181° |
| 2026-05-05 23:14 | 22.62256 | -80.95531 | 33020 ft | 493 kts | 181° |
| 2026-05-05 23:15 | 22.55399 | -80.95261 | 33019 ft | 493 kts | 181° |
| 2026-05-05 23:15 | 22.48559 | -80.94992 | 33013 ft | 491 kts | 180° |
| 2026-05-05 23:16 | 22.41737 | -80.94724 | 33014 ft | 490 kts | 180° |
| 2026-05-05 23:16 | 22.34941 | -80.94457 | 33017 ft | 488 kts | 180° |
| 2026-05-05 23:17 | 22.28159 | -80.94191 | 33016 ft | 487 kts | 180° |
| 2026-05-05 23:17 | 22.21390 | -80.93926 | 33015 ft | 486 kts | 180° |
| 2026-05-05 23:18 | 22.14641 | -80.93662 | 33014 ft | 485 kts | 180° |
| 2026-05-05 23:18 | 22.07881 | -80.93398 | 33016 ft | 485 kts | 180° |
| 2026-05-05 23:19 | 22.01126 | -80.93135 | 33015 ft | 486 kts | 180° |
| 2026-05-05 23:19 | 21.94363 | -80.92871 | 33011 ft | 486 kts | 180° |
| 2026-05-05 23:20 | 21.87593 | -80.92607 | 33001 ft | 487 kts | 180° |
| 2026-05-05 23:20 | 21.80808 | -80.92343 | 33011 ft | 487 kts | 180° |
| 2026-05-05 23:21 | 21.74073 | -80.92081 | 33011 ft | 488 kts | 180° |
| 2026-05-05 23:21 | 21.67237 | -80.91815 | 33011 ft | 489 kts | 180° |
| 2026-05-05 23:22 | 21.60439 | -80.91551 | 33011 ft | 489 kts | 180° |
| 2026-05-05 23:22 | 21.53681 | -80.91289 | 33002 ft | 489 kts | 180° |
| 2026-05-05 23:23 | 21.46871 | -80.91026 | 33011 ft | 489 kts | 180° |
| 2026-05-05 23:23 | 21.40070 | -80.90766 | 33012 ft | 489 kts | 180° |
| 2026-05-05 23:24 | 21.33268 | -80.90506 | 33013 ft | 489 kts | 180° |
| 2026-05-05 23:24 | 21.26461 | -80.90246 | 33012 ft | 489 kts | 180° |
| 2026-05-05 23:25 | 21.19703 | -80.89988 | 33013 ft | 488 kts | 180° |
| 2026-05-05 23:25 | 21.12917 | -80.89729 | 33014 ft | 488 kts | 180° |
| 2026-05-05 23:26 | 21.06122 | -80.89470 | 33013 ft | 488 kts | 180° |
| 2026-05-05 23:26 | 20.99337 | -80.89178 | 33014 ft | 488 kts | 179° |
| 2026-05-05 23:27 | 20.92556 | -80.88871 | 33013 ft | 487 kts | 179° |
| 2026-05-05 23:27 | 20.85786 | -80.88567 | 33008 ft | 487 kts | 179° |
| 2026-05-05 23:28 | 20.79002 | -80.88267 | 33012 ft | 487 kts | 179° |
| 2026-05-05 23:28 | 20.72225 | -80.87968 | 33009 ft | 487 kts | 179° |
| 2026-05-05 23:29 | 20.65448 | -80.87670 | 33008 ft | 487 kts | 179° |
| 2026-05-05 23:29 | 20.58668 | -80.87372 | 33009 ft | 488 kts | 179° |
| 2026-05-05 23:30 | 20.53029 | -80.87124 | 33006 ft | 488 kts | 179° |
| 2026-05-05 23:30 | 20.45142 | -80.86777 | 33009 ft | 488 kts | 179° |
| 2026-05-05 23:31 | 20.38357 | -80.86479 | 33006 ft | 488 kts | 179° |
| 2026-05-05 23:31 | 20.31571 | -80.86182 | 33008 ft | 488 kts | 179° |
| 2026-05-05 23:32 | 20.24776 | -80.85884 | 33008 ft | 488 kts | 179° |
| 2026-05-05 23:32 | 20.17988 | -80.85587 | 33000 ft | 488 kts | 179° |
| 2026-05-05 23:33 | 20.11202 | -80.85290 | 33003 ft | 488 kts | 179° |
| 2026-05-05 23:33 | 20.04420 | -80.84993 | 33002 ft | 488 kts | 179° |
| 2026-05-05 23:34 | 19.97638 | -80.84693 | 33002 ft | 488 kts | 179° |
| 2026-05-05 23:34 | 19.90855 | -80.84367 | 33003 ft | 488 kts | 178° |
| 2026-05-05 23:35 | 19.84121 | -80.84038 | 33000 ft | 487 kts | 178° |
| 2026-05-05 23:35 | 19.77308 | -80.83707 | 33003 ft | 487 kts | 178° |
| 2026-05-05 23:36 | 19.70569 | -80.83383 | 33003 ft | 487 kts | 178° |
| 2026-05-05 23:36 | 19.63780 | -80.83057 | 33003 ft | 487 kts | 178° |
| 2026-05-05 23:37 | 19.57013 | -80.82733 | 33000 ft | 487 kts | 178° |
| 2026-05-05 23:37 | 19.50233 | -80.82408 | 33000 ft | 487 kts | 178° |
| 2026-05-05 23:38 | 19.43463 | -80.82083 | 33000 ft | 487 kts | 178° |
| 2026-05-05 23:38 | 19.36692 | -80.81759 | 33000 ft | 487 kts | 178° |
| 2026-05-05 23:39 | 19.29923 | -80.81435 | 33001 ft | 487 kts | 178° |
| 2026-05-05 23:39 | 19.23193 | -80.81114 | 33000 ft | 487 kts | 178° |
| 2026-05-05 23:40 | 19.16426 | -80.80793 | 33000 ft | 486 kts | 178° |
| 2026-05-05 23:40 | 19.09662 | -80.80472 | 32999 ft | 486 kts | 178° |
| 2026-05-05 23:41 | 19.04038 | -80.80205 | 33000 ft | 486 kts | 178° |
| 2026-05-05 23:41 | 18.97276 | -80.79885 | 33000 ft | 486 kts | 178° |
| 2026-05-05 23:42 | 18.90507 | -80.79564 | 33000 ft | 486 kts | 178° |
| 2026-05-05 23:42 | 18.83746 | -80.79244 | 32997 ft | 486 kts | 178° |
| 2026-05-05 23:43 | 18.76981 | -80.78924 | 33001 ft | 486 kts | 178° |
| 2026-05-05 23:43 | 18.70262 | -80.78607 | 32998 ft | 486 kts | 178° |
| 2026-05-05 23:44 | 18.63462 | -80.78286 | 32996 ft | 486 kts | 178° |
| 2026-05-05 23:44 | 18.56747 | -80.77969 | 32994 ft | 486 kts | 178° |
| 2026-05-05 23:45 | 18.50001 | -80.77651 | 32995 ft | 486 kts | 178° |
| 2026-05-05 23:45 | 18.43241 | -80.77333 | 32993 ft | 486 kts | 178° |
| 2026-05-05 23:46 | 18.36487 | -80.77015 | 32998 ft | 486 kts | 178° |
| 2026-05-05 23:46 | 18.29769 | -80.76699 | 32991 ft | 486 kts | 178° |
| 2026-05-05 23:47 | 18.22965 | -80.76380 | 32991 ft | 486 kts | 178° |
| 2026-05-05 23:47 | 18.16254 | -80.76065 | 32992 ft | 486 kts | 178° |
| 2026-05-05 23:48 | 18.09493 | -80.75747 | 32993 ft | 486 kts | 178° |
| 2026-05-05 23:48 | 18.02741 | -80.75431 | 32991 ft | 485 kts | 178° |
| 2026-05-05 23:49 | 17.95993 | -80.75114 | 32990 ft | 485 kts | 178° |
| 2026-05-05 23:49 | 17.89245 | -80.74799 | 32992 ft | 485 kts | 178° |
| 2026-05-05 23:50 | 17.82502 | -80.74483 | 32992 ft | 485 kts | 178° |
| 2026-05-05 23:50 | 17.75761 | -80.74168 | 32990 ft | 485 kts | 178° |
| 2026-05-05 23:51 | 17.69029 | -80.73854 | 32991 ft | 485 kts | 178° |
| 2026-05-05 23:51 | 17.62329 | -80.73541 | 32986 ft | 484 kts | 178° |
| 2026-05-05 23:52 | 17.55592 | -80.73225 | 32986 ft | 484 kts | 178° |
| 2026-05-05 23:52 | 17.48847 | -80.72909 | 32979 ft | 484 kts | 178° |
| 2026-05-05 23:53 | 17.42336 | -80.72604 | 32983 ft | 484 kts | 178° |
| 2026-05-05 23:53 | 17.35590 | -80.72288 | 32985 ft | 486 kts | 178° |
| 2026-05-05 23:54 | 17.28775 | -80.71970 | 32991 ft | 494 kts | 178° |
| 2026-05-05 23:54 | 17.21840 | -80.71646 | 32990 ft | 503 kts | 178° |
| 2026-05-05 23:55 | 17.14803 | -80.71317 | 32987 ft | 508 kts | 178° |
| 2026-05-05 23:55 | 17.07770 | -80.70989 | 32977 ft | 510 kts | 178° |
| 2026-05-05 23:56 | 17.00681 | -80.70658 | 32979 ft | 510 kts | 178° |
| 2026-05-05 23:56 | 16.93602 | -80.70328 | 32976 ft | 509 kts | 178° |
| 2026-05-05 23:57 | 16.86515 | -80.69998 | 32976 ft | 509 kts | 178° |
| 2026-05-05 23:57 | 16.79447 | -80.69670 | 32978 ft | 508 kts | 177° |
| 2026-05-05 23:58 | 16.72395 | -80.69342 | 32977 ft | 507 kts | 177° |
| 2026-05-05 23:58 | 16.65345 | -80.69014 | 32976 ft | 506 kts | 177° |
| 2026-05-05 23:59 | 16.58311 | -80.68688 | 32973 ft | 506 kts | 177° |
| 2026-05-05 23:59 | 16.51331 | -80.68364 | 32970 ft | 505 kts | 177° |
| 2026-05-06 00:00 | 16.44314 | -80.68039 | 32973 ft | 505 kts | 177° |
| 2026-05-06 00:00 | 16.37302 | -80.67714 | 32970 ft | 504 kts | 177° |
| 2026-05-06 00:01 | 16.30296 | -80.67390 | 32967 ft | 504 kts | 177° |
| 2026-05-06 00:01 | 16.23304 | -80.67067 | 32967 ft | 503 kts | 177° |
| 2026-05-06 00:02 | 16.16304 | -80.66743 | 32968 ft | 503 kts | 177° |
| 2026-05-06 00:02 | 16.09310 | -80.66420 | 32964 ft | 503 kts | 177° |
| 2026-05-06 00:03 | 16.02313 | -80.66097 | 32967 ft | 502 kts | 177° |
| 2026-05-06 00:03 | 15.95314 | -80.65774 | 32965 ft | 502 kts | 177° |
| 2026-05-06 00:04 | 15.88379 | -80.65455 | 32968 ft | 502 kts | 177° |
| 2026-05-06 00:04 | 15.81392 | -80.65133 | 32965 ft | 502 kts | 177° |
| 2026-05-06 00:05 | 15.70924 | -80.64651 | 32959 ft | 501 kts | 177° |
| 2026-05-06 00:06 | 15.63956 | -80.64331 | 32963 ft | 501 kts | 177° |
| 2026-05-06 00:06 | 15.57016 | -80.64012 | 32958 ft | 501 kts | 177° |
| 2026-05-06 00:07 | 15.50056 | -80.63693 | 32955 ft | 500 kts | 177° |
| 2026-05-06 00:07 | 15.43099 | -80.63373 | 32958 ft | 500 kts | 177° |
| 2026-05-06 00:08 | 15.36145 | -80.63054 | 32957 ft | 499 kts | 177° |
| 2026-05-06 00:08 | 15.29208 | -80.62737 | 32947 ft | 498 kts | 177° |
| 2026-05-06 00:09 | 15.22267 | -80.62419 | 32947 ft | 498 kts | 177° |
| 2026-05-06 00:09 | 15.15346 | -80.62102 | 32956 ft | 498 kts | 177° |
| 2026-05-06 00:10 | 15.08427 | -80.61785 | 32945 ft | 497 kts | 176° |
| 2026-05-06 00:10 | 15.01517 | -80.61469 | 32952 ft | 497 kts | 176° |
| 2026-05-06 00:11 | 14.94666 | -80.60674 | 32959 ft | 495 kts | 169° |
| 2026-05-06 00:11 | 14.87920 | -80.59442 | 32950 ft | 495 kts | 168° |
| 2026-05-06 00:12 | 14.81134 | -80.58187 | 32948 ft | 495 kts | 169° |
| 2026-05-06 00:12 | 14.74340 | -80.56986 | 32950 ft | 495 kts | 169° |
| 2026-05-06 00:13 | 14.67560 | -80.55821 | 32943 ft | 494 kts | 169° |
| 2026-05-06 00:13 | 14.60779 | -80.54662 | 32950 ft | 494 kts | 169° |
| 2026-05-06 00:14 | 14.54048 | -80.53511 | 32950 ft | 493 kts | 169° |
| 2026-05-06 00:14 | 14.47268 | -80.52351 | 32942 ft | 493 kts | 169° |
| 2026-05-06 00:15 | 14.40497 | -80.51191 | 32950 ft | 493 kts | 169° |
| 2026-05-06 00:15 | 14.33722 | -80.50032 | 32945 ft | 493 kts | 169° |
| 2026-05-06 00:16 | 14.26951 | -80.48875 | 32945 ft | 494 kts | 169° |
| 2026-05-06 00:16 | 14.20388 | -80.47753 | 32946 ft | 494 kts | 169° |
| 2026-05-06 00:17 | 14.13600 | -80.46594 | 32954 ft | 495 kts | 169° |
| 2026-05-06 00:17 | 14.06800 | -80.45434 | 32941 ft | 496 kts | 169° |
| 2026-05-06 00:18 | 13.99985 | -80.44271 | 32949 ft | 495 kts | 169° |
| 2026-05-06 00:18 | 13.93185 | -80.43112 | 32947 ft | 495 kts | 170° |
| 2026-05-06 00:19 | 13.86433 | -80.41961 | 32929 ft | 494 kts | 169° |
| 2026-05-06 00:19 | 13.79657 | -80.40808 | 32950 ft | 493 kts | 169° |
| 2026-05-06 00:20 | 13.72880 | -80.39655 | 32942 ft | 493 kts | 169° |
| 2026-05-06 00:20 | 13.66111 | -80.38503 | 32940 ft | 493 kts | 170° |
| 2026-05-06 00:21 | 13.59344 | -80.37353 | 32937 ft | 493 kts | 170° |
| 2026-05-06 00:21 | 13.52580 | -80.36204 | 32931 ft | 493 kts | 170° |
| 2026-05-06 00:22 | 13.45804 | -80.35054 | 32937 ft | 493 kts | 170° |
| 2026-05-06 00:22 | 13.39038 | -80.33907 | 32936 ft | 493 kts | 170° |
| 2026-05-06 00:23 | 13.32307 | -80.32765 | 32942 ft | 494 kts | 170° |
| 2026-05-06 00:23 | 13.25538 | -80.31617 | 32939 ft | 492 kts | 171° |
| 2026-05-06 00:24 | 13.18774 | -80.30472 | 32938 ft | 491 kts | 171° |
| 2026-05-06 00:24 | 13.12027 | -80.29330 | 32934 ft | 490 kts | 171° |
| 2026-05-06 00:25 | 13.05296 | -80.28192 | 32941 ft | 489 kts | 171° |
| 2026-05-06 00:25 | 12.98578 | -80.27055 | 32925 ft | 489 kts | 171° |
| 2026-05-06 00:26 | 12.91863 | -80.25920 | 32933 ft | 488 kts | 171° |